sensor_id;sensor_type;location;lat;lon;timestamp;temperature;humidity
9772;DHT22;4925;52.588;13.370;2022-12-10T00:00:54;0.50;99.90
9772;DHT22;4925;52.588;13.370;2022-12-10T00:03:20;0.60;99.90
9772;DHT22;4925;52.588;13.370;2022-12-10T00:05:45;0.70;99.90
9772;DHT22;4925;52.588;13.370;2022-12-10T00:08:11;0.70;99.90
9772;DHT22;4925;52.588;13.370;2022-12-10T00:10:40;0.70;99.90
9772;DHT22;4925;52.588;13.370;2022-12-10T00:13:06;0.70;99.90
9772;DHT22;4925;52.588;13.370;2022-12-10T00:15:34;0.80;99.90
9772;DHT22;4925;52.588;13.370;2022-12-10T00:18:00;0.80;99.90
9772;DHT22;4925;52.588;13.370;2022-12-10T00:20:26;0.90;99.90
9772;DHT22;4925;52.588;13.370;2022-12-10T00:22:51;0.80;99.90
9772;DHT22;4925;52.588;13.370;2022-12-10T00:25:17;0.80;99.90
9772;DHT22;4925;52.588;13.370;2022-12-10T00:27:43;0.80;99.90
9772;DHT22;4925;52.588;13.370;2022-12-10T00:30:09;0.90;99.90
9772;DHT22;4925;52.588;13.370;2022-12-10T00:32:34;0.80;99.90
9772;DHT22;4925;52.588;13.370;2022-12-10T00:35:00;0.90;99.90
9772;DHT22;4925;52.588;13.370;2022-12-10T00:37:26;0.80;99.90
9772;DHT22;4925;52.588;13.370;2022-12-10T00:39:51;0.80;99.90
9772;DHT22;4925;52.588;13.370;2022-12-10T00:42:17;0.80;99.90
9772;DHT22;4925;52.588;13.370;2022-12-10T00:44:42;0.80;99.90
9772;DHT22;4925;52.588;13.370;2022-12-10T00:47:08;0.80;99.90
9772;DHT22;4925;52.588;13.370;2022-12-10T00:49:34;0.80;99.90
9772;DHT22;4925;52.588;13.370;2022-12-10T00:51:59;0.70;99.90
9772;DHT22;4925;52.588;13.370;2022-12-10T00:54:25;0.70;99.90
9772;DHT22;4925;52.588;13.370;2022-12-10T00:56:51;0.80;99.90
9772;DHT22;4925;52.588;13.370;2022-12-10T00:59:16;0.80;99.90
9772;DHT22;4925;52.588;13.370;2022-12-10T01:01:42;0.80;99.90
9772;DHT22;4925;52.588;13.370;2022-12-10T01:04:16;0.80;99.90
9772;DHT22;4925;52.588;13.370;2022-12-10T01:06:48;0.80;99.90
9772;DHT22;4925;52.588;13.370;2022-12-10T01:09:17;0.90;99.90
9772;DHT22;4925;52.588;13.370;2022-12-10T01:11:45;0.90;99.90
9772;DHT22;4925;52.588;13.370;2022-12-10T01:14:15;0.90;99.90
9772;DHT22;4925;52.588;13.370;2022-12-10T01:16:43;0.90;99.90
9772;DHT22;4925;52.588;13.370;2022-12-10T01:19:09;0.90;99.90
9772;DHT22;4925;52.588;13.370;2022-12-10T01:21:36;1.00;99.90
9772;DHT22;4925;52.588;13.370;2022-12-10T01:24:03;0.90;99.90
9772;DHT22;4925;52.588;13.370;2022-12-10T01:26:31;0.90;99.90
9772;DHT22;4925;52.588;13.370;2022-12-10T01:28:57;0.90;99.90
9772;DHT22;4925;52.588;13.370;2022-12-10T01:31:26;1.10;99.90
9772;DHT22;4925;52.588;13.370;2022-12-10T01:33:52;1.00;99.90
9772;DHT22;4925;52.588;13.370;2022-12-10T01:36:21;1.00;99.90
9772;DHT22;4925;52.588;13.370;2022-12-10T01:38:47;1.00;99.90
9772;DHT22;4925;52.588;13.370;2022-12-10T01:41:19;1.00;99.90
9772;DHT22;4925;52.588;13.370;2022-12-10T01:46:21;0.90;99.90
9772;DHT22;4925;52.588;13.370;2022-12-10T01:48:47;1.00;99.90
9772;DHT22;4925;52.588;13.370;2022-12-10T01:51:13;0.90;99.90
9772;DHT22;4925;52.588;13.370;2022-12-10T01:53:40;0.90;99.90
9772;DHT22;4925;52.588;13.370;2022-12-10T01:56:05;0.80;99.90
9772;DHT22;4925;52.588;13.370;2022-12-10T01:58:31;0.80;99.90
9772;DHT22;4925;52.588;13.370;2022-12-10T02:01:10;0.80;99.90
9772;DHT22;4925;52.588;13.370;2022-12-10T02:03:56;0.90;99.90
9772;DHT22;4925;52.588;13.370;2022-12-10T02:17:32;0.70;99.90
9772;DHT22;4925;52.588;13.370;2022-12-10T02:20:10;0.80;99.90
9772;DHT22;4925;52.588;13.370;2022-12-10T02:22:44;0.70;99.90
9772;DHT22;4925;52.588;13.370;2022-12-10T02:25:12;0.80;99.90
9772;DHT22;4925;52.588;13.370;2022-12-10T02:27:58;0.80;99.90
9772;DHT22;4925;52.588;13.370;2022-12-10T02:30:28;0.80;99.90
9772;DHT22;4925;52.588;13.370;2022-12-10T02:32:56;0.80;99.90
9772;DHT22;4925;52.588;13.370;2022-12-10T02:35:26;0.70;99.90
9772;DHT22;4925;52.588;13.370;2022-12-10T02:38:03;0.70;99.90
9772;DHT22;4925;52.588;13.370;2022-12-10T02:40:32;0.70;99.90
9772;DHT22;4925;52.588;13.370;2022-12-10T02:42:58;0.60;99.90
9772;DHT22;4925;52.588;13.370;2022-12-10T02:45:27;0.60;99.90
9772;DHT22;4925;52.588;13.370;2022-12-10T02:47:57;0.70;99.90
9772;DHT22;4925;52.588;13.370;2022-12-10T02:50:24;0.60;99.90
9772;DHT22;4925;52.588;13.370;2022-12-10T02:52:50;0.70;99.90
9772;DHT22;4925;52.588;13.370;2022-12-10T02:55:17;0.70;99.90
9772;DHT22;4925;52.588;13.370;2022-12-10T03:01:02;0.70;99.90
9772;DHT22;4925;52.588;13.370;2022-12-10T03:03:41;0.60;99.90
9772;DHT22;4925;52.588;13.370;2022-12-10T03:08:47;0.60;99.90
9772;DHT22;4925;52.588;13.370;2022-12-10T03:11:16;0.60;99.90
9772;DHT22;4925;52.588;13.370;2022-12-10T03:16:13;0.70;99.90
9772;DHT22;4925;52.588;13.370;2022-12-10T03:18:40;0.70;99.90
9772;DHT22;4925;52.588;13.370;2022-12-10T03:21:07;0.70;99.90
9772;DHT22;4925;52.588;13.370;2022-12-10T03:23:38;0.80;99.90
9772;DHT22;4925;52.588;13.370;2022-12-10T03:26:07;0.70;99.90
9772;DHT22;4925;52.588;13.370;2022-12-10T03:28:38;0.70;99.90
9772;DHT22;4925;52.588;13.370;2022-12-10T03:31:04;0.70;99.90
9772;DHT22;4925;52.588;13.370;2022-12-10T03:33:31;0.80;99.90
9772;DHT22;4925;52.588;13.370;2022-12-10T03:35:58;0.80;99.90
9772;DHT22;4925;52.588;13.370;2022-12-10T03:38:24;0.80;99.90
9772;DHT22;4925;52.588;13.370;2022-12-10T03:40:50;0.80;99.90
9772;DHT22;4925;52.588;13.370;2022-12-10T03:43:16;0.80;99.90
9772;DHT22;4925;52.588;13.370;2022-12-10T03:45:41;0.90;99.90
9772;DHT22;4925;52.588;13.370;2022-12-10T03:48:07;0.90;99.90
9772;DHT22;4925;52.588;13.370;2022-12-10T03:50:33;0.90;99.90
9772;DHT22;4925;52.588;13.370;2022-12-10T03:52:58;1.00;99.90
9772;DHT22;4925;52.588;13.370;2022-12-10T03:55:24;1.00;99.90
9772;DHT22;4925;52.588;13.370;2022-12-10T03:57:50;1.10;99.90
9772;DHT22;4925;52.588;13.370;2022-12-10T04:00:15;1.10;99.90
9772;DHT22;4925;52.588;13.370;2022-12-10T04:02:41;1.10;99.90
9772;DHT22;4925;52.588;13.370;2022-12-10T04:05:07;1.10;99.90
9772;DHT22;4925;52.588;13.370;2022-12-10T04:07:34;1.10;99.90
9772;DHT22;4925;52.588;13.370;2022-12-10T04:09:59;1.00;99.90
9772;DHT22;4925;52.588;13.370;2022-12-10T04:12:25;1.00;99.90
9772;DHT22;4925;52.588;13.370;2022-12-10T04:14:51;1.00;99.90
9772;DHT22;4925;52.588;13.370;2022-12-10T04:17:35;1.10;99.90
9772;DHT22;4925;52.588;13.370;2022-12-10T04:20:01;1.10;99.90
9772;DHT22;4925;52.588;13.370;2022-12-10T04:22:27;1.00;99.90
9772;DHT22;4925;52.588;13.370;2022-12-10T04:25:11;1.10;99.90
9772;DHT22;4925;52.588;13.370;2022-12-10T04:27:56;1.10;99.90
9772;DHT22;4925;52.588;13.370;2022-12-10T04:30:22;1.00;99.90
9772;DHT22;4925;52.588;13.370;2022-12-10T04:32:47;1.10;99.90
9772;DHT22;4925;52.588;13.370;2022-12-10T04:35:13;1.10;99.90
9772;DHT22;4925;52.588;13.370;2022-12-10T04:37:39;1.20;99.90
9772;DHT22;4925;52.588;13.370;2022-12-10T04:40:05;1.20;99.90
9772;DHT22;4925;52.588;13.370;2022-12-10T04:42:31;1.10;99.90
9772;DHT22;4925;52.588;13.370;2022-12-10T04:44:57;1.20;99.90
9772;DHT22;4925;52.588;13.370;2022-12-10T04:47:22;1.20;99.90
9772;DHT22;4925;52.588;13.370;2022-12-10T04:49:48;1.10;99.90
9772;DHT22;4925;52.588;13.370;2022-12-10T04:52:15;1.10;99.90
9772;DHT22;4925;52.588;13.370;2022-12-10T04:54:42;1.10;99.90
9772;DHT22;4925;52.588;13.370;2022-12-10T04:57:09;1.00;99.90
9772;DHT22;4925;52.588;13.370;2022-12-10T04:59:35;1.00;99.90
9772;DHT22;4925;52.588;13.370;2022-12-10T05:02:02;1.00;99.90
9772;DHT22;4925;52.588;13.370;2022-12-10T05:04:28;1.00;99.90
9772;DHT22;4925;52.588;13.370;2022-12-10T05:06:53;1.10;99.90
9772;DHT22;4925;52.588;13.370;2022-12-10T05:09:19;1.00;99.90
9772;DHT22;4925;52.588;13.370;2022-12-10T05:11:45;1.10;99.90
9772;DHT22;4925;52.588;13.370;2022-12-10T05:14:12;1.10;99.90
9772;DHT22;4925;52.588;13.370;2022-12-10T05:16:38;1.10;99.90
9772;DHT22;4925;52.588;13.370;2022-12-10T05:19:04;1.10;99.90
9772;DHT22;4925;52.588;13.370;2022-12-10T05:21:30;1.10;99.90
9772;DHT22;4925;52.588;13.370;2022-12-10T05:24:14;1.10;99.90
9772;DHT22;4925;52.588;13.370;2022-12-10T05:26:41;1.20;99.90
9772;DHT22;4925;52.588;13.370;2022-12-10T05:29:07;1.20;99.90
9772;DHT22;4925;52.588;13.370;2022-12-10T05:31:32;1.20;99.90
9772;DHT22;4925;52.588;13.370;2022-12-10T05:33:58;1.20;99.90
9772;DHT22;4925;52.588;13.370;2022-12-10T05:36:26;1.20;99.90
9772;DHT22;4925;52.588;13.370;2022-12-10T05:38:54;1.20;99.90
9772;DHT22;4925;52.588;13.370;2022-12-10T05:41:23;1.20;99.90
9772;DHT22;4925;52.588;13.370;2022-12-10T05:43:49;1.30;99.90
9772;DHT22;4925;52.588;13.370;2022-12-10T05:46:18;1.20;99.90
9772;DHT22;4925;52.588;13.370;2022-12-10T05:48:44;1.20;99.90
9772;DHT22;4925;52.588;13.370;2022-12-10T05:51:13;1.20;99.90
9772;DHT22;4925;52.588;13.370;2022-12-10T05:53:39;1.20;99.90
9772;DHT22;4925;52.588;13.370;2022-12-10T05:56:08;1.20;99.90
9772;DHT22;4925;52.588;13.370;2022-12-10T05:58:35;1.10;99.90
9772;DHT22;4925;52.588;13.370;2022-12-10T06:01:08;1.20;99.90
9772;DHT22;4925;52.588;13.370;2022-12-10T06:03:34;1.20;99.90
9772;DHT22;4925;52.588;13.370;2022-12-10T06:05:59;1.20;99.90
9772;DHT22;4925;52.588;13.370;2022-12-10T06:08:25;1.20;99.90
9772;DHT22;4925;52.588;13.370;2022-12-10T06:10:51;1.20;99.90
9772;DHT22;4925;52.588;13.370;2022-12-10T06:13:16;1.30;99.90
9772;DHT22;4925;52.588;13.370;2022-12-10T06:15:42;1.30;99.90
9772;DHT22;4925;52.588;13.370;2022-12-10T06:18:08;1.20;99.90
9772;DHT22;4925;52.588;13.370;2022-12-10T06:20:37;1.20;99.90
9772;DHT22;4925;52.588;13.370;2022-12-10T06:23:03;1.30;99.90
9772;DHT22;4925;52.588;13.370;2022-12-10T06:25:28;1.40;99.90
9772;DHT22;4925;52.588;13.370;2022-12-10T06:27:54;1.30;99.90
9772;DHT22;4925;52.588;13.370;2022-12-10T06:30:20;1.30;99.90
9772;DHT22;4925;52.588;13.370;2022-12-10T06:32:45;1.40;99.90
9772;DHT22;4925;52.588;13.370;2022-12-10T06:35:11;1.30;99.90
9772;DHT22;4925;52.588;13.370;2022-12-10T06:37:37;1.40;99.90
9772;DHT22;4925;52.588;13.370;2022-12-10T06:40:04;1.40;99.90
9772;DHT22;4925;52.588;13.370;2022-12-10T06:42:30;1.40;99.90
9772;DHT22;4925;52.588;13.370;2022-12-10T06:44:55;1.30;99.90
9772;DHT22;4925;52.588;13.370;2022-12-10T06:47:21;1.30;99.90
9772;DHT22;4925;52.588;13.370;2022-12-10T06:49:47;1.40;99.90
9772;DHT22;4925;52.588;13.370;2022-12-10T06:52:13;1.40;99.90
9772;DHT22;4925;52.588;13.370;2022-12-10T06:54:39;1.40;99.90
9772;DHT22;4925;52.588;13.370;2022-12-10T06:57:05;1.40;99.90
9772;DHT22;4925;52.588;13.370;2022-12-10T06:59:31;1.30;99.90
9772;DHT22;4925;52.588;13.370;2022-12-10T07:01:57;1.20;99.90
9772;DHT22;4925;52.588;13.370;2022-12-10T07:04:22;1.30;99.90
9772;DHT22;4925;52.588;13.370;2022-12-10T07:06:48;1.30;99.90
9772;DHT22;4925;52.588;13.370;2022-12-10T07:09:14;1.40;99.90
9772;DHT22;4925;52.588;13.370;2022-12-10T07:11:39;1.40;99.90
9772;DHT22;4925;52.588;13.370;2022-12-10T07:14:05;1.50;99.90
9772;DHT22;4925;52.588;13.370;2022-12-10T07:16:32;1.50;99.90
9772;DHT22;4925;52.588;13.370;2022-12-10T07:19:00;1.50;99.90
9772;DHT22;4925;52.588;13.370;2022-12-10T07:21:32;1.50;99.90
9772;DHT22;4925;52.588;13.370;2022-12-10T07:24:00;1.60;99.90
9772;DHT22;4925;52.588;13.370;2022-12-10T07:26:31;1.50;99.90
9772;DHT22;4925;52.588;13.370;2022-12-10T07:28:59;1.50;99.90
9772;DHT22;4925;52.588;13.370;2022-12-10T07:31:25;1.50;99.90
9772;DHT22;4925;52.588;13.370;2022-12-10T07:33:53;1.50;99.90
9772;DHT22;4925;52.588;13.370;2022-12-10T07:36:20;1.50;99.90
9772;DHT22;4925;52.588;13.370;2022-12-10T07:38:48;1.60;99.90
9772;DHT22;4925;52.588;13.370;2022-12-10T07:41:14;1.50;99.90
9772;DHT22;4925;52.588;13.370;2022-12-10T07:43:42;1.60;99.90
9772;DHT22;4925;52.588;13.370;2022-12-10T07:46:11;1.60;97.90
9772;DHT22;4925;52.588;13.370;2022-12-10T07:48:39;1.70;96.20
9772;DHT22;4925;52.588;13.370;2022-12-10T07:51:05;1.60;93.50
9772;DHT22;4925;52.588;13.370;2022-12-10T07:53:31;1.70;94.90
9772;DHT22;4925;52.588;13.370;2022-12-10T07:55:57;1.70;95.30
9772;DHT22;4925;52.588;13.370;2022-12-10T07:58:22;1.80;92.30
9772;DHT22;4925;52.588;13.370;2022-12-10T08:00:48;1.80;92.40
9772;DHT22;4925;52.588;13.370;2022-12-10T08:03:15;1.80;93.80
9772;DHT22;4925;52.588;13.370;2022-12-10T08:05:41;1.80;93.10
9772;DHT22;4925;52.588;13.370;2022-12-10T08:08:07;1.90;91.30
9772;DHT22;4925;52.588;13.370;2022-12-10T08:10:34;1.80;86.00
9772;DHT22;4925;52.588;13.370;2022-12-10T08:13:00;1.80;90.80
9772;DHT22;4925;52.588;13.370;2022-12-10T08:15:26;1.80;89.40
9772;DHT22;4925;52.588;13.370;2022-12-10T08:17:53;1.80;87.30
9772;DHT22;4925;52.588;13.370;2022-12-10T08:20:19;1.80;90.50
9772;DHT22;4925;52.588;13.370;2022-12-10T08:22:45;1.90;99.90
9772;DHT22;4925;52.588;13.370;2022-12-10T08:25:11;1.90;91.00
9772;DHT22;4925;52.588;13.370;2022-12-10T08:27:36;2.00;87.80
9772;DHT22;4925;52.588;13.370;2022-12-10T08:30:03;2.10;90.10
9772;DHT22;4925;52.588;13.370;2022-12-10T08:32:29;2.00;87.60
9772;DHT22;4925;52.588;13.370;2022-12-10T08:34:55;2.00;80.80
9772;DHT22;4925;52.588;13.370;2022-12-10T08:37:20;2.00;83.90
9772;DHT22;4925;52.588;13.370;2022-12-10T08:39:46;2.00;86.40
9772;DHT22;4925;52.588;13.370;2022-12-10T08:42:12;2.00;86.70
9772;DHT22;4925;52.588;13.370;2022-12-10T08:44:38;2.00;86.40
9772;DHT22;4925;52.588;13.370;2022-12-10T08:47:03;1.90;82.40
9772;DHT22;4925;52.588;13.370;2022-12-10T08:49:29;2.00;80.20
9772;DHT22;4925;52.588;13.370;2022-12-10T08:51:55;2.10;77.80
9772;DHT22;4925;52.588;13.370;2022-12-10T08:54:20;2.00;78.10
9772;DHT22;4925;52.588;13.370;2022-12-10T08:56:46;2.10;68.50
9772;DHT22;4925;52.588;13.370;2022-12-10T08:59:11;2.20;66.40
9772;DHT22;4925;52.588;13.370;2022-12-10T09:01:37;2.20;79.10
9772;DHT22;4925;52.588;13.370;2022-12-10T09:04:03;2.20;68.80
9772;DHT22;4925;52.588;13.370;2022-12-10T09:06:29;2.10;74.80
9772;DHT22;4925;52.588;13.370;2022-12-10T09:08:56;2.10;74.10
9772;DHT22;4925;52.588;13.370;2022-12-10T09:11:28;2.10;81.80
9772;DHT22;4925;52.588;13.370;2022-12-10T09:13:55;2.00;80.50
9772;DHT22;4925;52.588;13.370;2022-12-10T09:16:27;2.10;85.90
9772;DHT22;4925;52.588;13.370;2022-12-10T09:18:53;2.20;78.90
9772;DHT22;4925;52.588;13.370;2022-12-10T09:21:19;2.30;71.10
9772;DHT22;4925;52.588;13.370;2022-12-10T09:23:45;2.30;70.00
9772;DHT22;4925;52.588;13.370;2022-12-10T09:26:14;2.30;63.90
9772;DHT22;4925;52.588;13.370;2022-12-10T09:28:40;2.40;64.50
9772;DHT22;4925;52.588;13.370;2022-12-10T09:31:07;2.30;60.30
9772;DHT22;4925;52.588;13.370;2022-12-10T09:33:35;2.40;55.30
9772;DHT22;4925;52.588;13.370;2022-12-10T09:36:06;2.40;60.00
9772;DHT22;4925;52.588;13.370;2022-12-10T09:38:34;2.50;60.30
9772;DHT22;4925;52.588;13.370;2022-12-10T09:41:01;2.40;50.20
9772;DHT22;4925;52.588;13.370;2022-12-10T09:46:41;2.40;57.90
9772;DHT22;4925;52.588;13.370;2022-12-10T09:49:31;2.30;66.20
9772;DHT22;4925;52.588;13.370;2022-12-10T09:52:03;2.40;60.00
9772;DHT22;4925;52.588;13.370;2022-12-10T09:54:33;2.40;64.60
9772;DHT22;4925;52.588;13.370;2022-12-10T09:57:00;2.50;65.20
9772;DHT22;4925;52.588;13.370;2022-12-10T09:59:42;2.50;69.80
9772;DHT22;4925;52.588;13.370;2022-12-10T10:04:40;2.70;58.50
9772;DHT22;4925;52.588;13.370;2022-12-10T10:07:06;2.90;55.30
9772;DHT22;4925;52.588;13.370;2022-12-10T10:09:38;2.90;41.70
9772;DHT22;4925;52.588;13.370;2022-12-10T10:12:14;3.00;38.70
9772;DHT22;4925;52.588;13.370;2022-12-10T10:14:42;2.90;37.90
9772;DHT22;4925;52.588;13.370;2022-12-10T10:17:16;2.80;41.80
9772;DHT22;4925;52.588;13.370;2022-12-10T10:19:44;2.90;42.20
9772;DHT22;4925;52.588;13.370;2022-12-10T10:22:11;2.90;42.10
9772;DHT22;4925;52.588;13.370;2022-12-10T10:24:40;2.80;49.00
9772;DHT22;4925;52.588;13.370;2022-12-10T10:29:45;3.00;47.70
9772;DHT22;4925;52.588;13.370;2022-12-10T10:32:12;3.10;39.90
9772;DHT22;4925;52.588;13.370;2022-12-10T10:34:39;3.00;37.70
9772;DHT22;4925;52.588;13.370;2022-12-10T10:37:05;3.00;42.60
9772;DHT22;4925;52.588;13.370;2022-12-10T10:39:32;3.00;42.20
9772;DHT22;4925;52.588;13.370;2022-12-10T10:42:08;3.00;39.40
9772;DHT22;4925;52.588;13.370;2022-12-10T10:44:37;2.70;46.30
9772;DHT22;4925;52.588;13.370;2022-12-10T10:47:33;2.80;54.20
9772;DHT22;4925;52.588;13.370;2022-12-10T10:49:59;2.90;53.70
9772;DHT22;4925;52.588;13.370;2022-12-10T10:52:35;2.90;45.90
9772;DHT22;4925;52.588;13.370;2022-12-10T10:55:02;3.00;45.50
9772;DHT22;4925;52.588;13.370;2022-12-10T10:57:33;2.90;41.70
9772;DHT22;4925;52.588;13.370;2022-12-10T11:00:19;2.90;50.40
9772;DHT22;4925;52.588;13.370;2022-12-10T11:02:46;2.90;66.60
9772;DHT22;4925;52.588;13.370;2022-12-10T11:07:43;3.00;45.40
9772;DHT22;4925;52.588;13.370;2022-12-10T11:10:21;3.00;44.00
9772;DHT22;4925;52.588;13.370;2022-12-10T11:13:03;3.00;42.50
9772;DHT22;4925;52.588;13.370;2022-12-10T11:15:40;3.10;36.30
9772;DHT22;4925;52.588;13.370;2022-12-10T11:18:40;3.00;41.80
9772;DHT22;4925;52.588;13.370;2022-12-10T11:23:43;2.90;53.70
9772;DHT22;4925;52.588;13.370;2022-12-10T11:26:33;3.00;76.20
9772;DHT22;4925;52.588;13.370;2022-12-10T11:32:11;3.00;54.60
9772;DHT22;4925;52.588;13.370;2022-12-10T11:42:27;2.90;70.20
9772;DHT22;4925;52.588;13.370;2022-12-10T12:04:06;3.00;56.70
9772;DHT22;4925;52.588;13.370;2022-12-10T12:10:29;2.90;52.30
9772;DHT22;4925;52.588;13.370;2022-12-10T12:13:10;2.90;51.30
9772;DHT22;4925;52.588;13.370;2022-12-10T12:15:46;2.80;52.80
9772;DHT22;4925;52.588;13.370;2022-12-10T12:18:21;2.70;54.60
9772;DHT22;4925;52.588;13.370;2022-12-10T12:21:24;2.80;56.90
9772;DHT22;4925;52.588;13.370;2022-12-10T12:23:50;2.80;50.90
9772;DHT22;4925;52.588;13.370;2022-12-10T12:29:06;2.70;55.30
9772;DHT22;4925;52.588;13.370;2022-12-10T12:31:41;2.70;43.40
9772;DHT22;4925;52.588;13.370;2022-12-10T12:34:32;2.70;48.00
9772;DHT22;4925;52.588;13.370;2022-12-10T12:37:03;2.50;45.70
9772;DHT22;4925;52.588;13.370;2022-12-10T12:42:32;2.60;46.00
9772;DHT22;4925;52.588;13.370;2022-12-10T12:45:20;2.70;46.30
9772;DHT22;4925;52.588;13.370;2022-12-10T12:53:19;2.60;49.20
9772;DHT22;4925;52.588;13.370;2022-12-10T13:01:22;2.60;57.30
9772;DHT22;4925;52.588;13.370;2022-12-10T13:03:50;2.60;56.10
9772;DHT22;4925;52.588;13.370;2022-12-10T13:06:23;2.50;55.20
9772;DHT22;4925;52.588;13.370;2022-12-10T13:11:43;2.50;50.50
9772;DHT22;4925;52.588;13.370;2022-12-10T13:22:10;2.50;61.00
9772;DHT22;4925;52.588;13.370;2022-12-10T13:29:53;2.60;65.60
9772;DHT22;4925;52.588;13.370;2022-12-10T13:33:03;2.50;63.00
9772;DHT22;4925;52.588;13.370;2022-12-10T13:42:44;2.50;69.50
9772;DHT22;4925;52.588;13.370;2022-12-10T13:45:32;2.50;69.50
9772;DHT22;4925;52.588;13.370;2022-12-10T13:51:08;2.50;67.00
9772;DHT22;4925;52.588;13.370;2022-12-10T13:56:32;2.60;58.10
9772;DHT22;4925;52.588;13.370;2022-12-10T13:59:27;2.60;59.60
9772;DHT22;4925;52.588;13.370;2022-12-10T14:02:31;2.50;62.40
9772;DHT22;4925;52.588;13.370;2022-12-10T14:05:23;2.60;78.20
9772;DHT22;4925;52.588;13.370;2022-12-10T14:07:53;2.60;64.50
9772;DHT22;4925;52.588;13.370;2022-12-10T14:10:26;2.70;51.10
9772;DHT22;4925;52.588;13.370;2022-12-10T14:12:53;2.70;45.50
9772;DHT22;4925;52.588;13.370;2022-12-10T14:15:25;2.50;49.10
9772;DHT22;4925;52.588;13.370;2022-12-10T14:17:59;2.40;56.00
9772;DHT22;4925;52.588;13.370;2022-12-10T14:20:26;2.40;58.70
9772;DHT22;4925;52.588;13.370;2022-12-10T14:22:55;2.40;58.60
9772;DHT22;4925;52.588;13.370;2022-12-10T14:25:46;2.30;61.60
9772;DHT22;4925;52.588;13.370;2022-12-10T14:28:14;2.30;65.70
9772;DHT22;4925;52.588;13.370;2022-12-10T14:30:48;2.20;69.30
9772;DHT22;4925;52.588;13.370;2022-12-10T14:33:24;2.30;66.10
9772;DHT22;4925;52.588;13.370;2022-12-10T14:35:52;2.20;67.80
9772;DHT22;4925;52.588;13.370;2022-12-10T14:38:21;2.20;71.40
9772;DHT22;4925;52.588;13.370;2022-12-10T14:40:47;2.10;76.50
9772;DHT22;4925;52.588;13.370;2022-12-10T14:43:17;2.20;79.40
9772;DHT22;4925;52.588;13.370;2022-12-10T14:45:58;2.20;82.90
9772;DHT22;4925;52.588;13.370;2022-12-10T14:48:25;2.10;78.40
9772;DHT22;4925;52.588;13.370;2022-12-10T14:50:51;2.20;81.70
9772;DHT22;4925;52.588;13.370;2022-12-10T14:53:20;2.20;82.10
9772;DHT22;4925;52.588;13.370;2022-12-10T14:55:51;2.20;83.80
9772;DHT22;4925;52.588;13.370;2022-12-10T14:58:45;2.30;77.30
9772;DHT22;4925;52.588;13.370;2022-12-10T15:01:17;2.30;74.50
9772;DHT22;4925;52.588;13.370;2022-12-10T15:03:47;2.30;70.10
9772;DHT22;4925;52.588;13.370;2022-12-10T15:06:16;2.40;71.20
9772;DHT22;4925;52.588;13.370;2022-12-10T15:08:43;2.40;70.10
9772;DHT22;4925;52.588;13.370;2022-12-10T15:11:16;2.40;68.70
9772;DHT22;4925;52.588;13.370;2022-12-10T15:13:46;2.30;70.20
9772;DHT22;4925;52.588;13.370;2022-12-10T15:16:18;2.30;72.70
9772;DHT22;4925;52.588;13.370;2022-12-10T15:18:44;2.20;72.50
9772;DHT22;4925;52.588;13.370;2022-12-10T15:21:19;2.20;78.80
9772;DHT22;4925;52.588;13.370;2022-12-10T15:23:46;2.20;79.30
9772;DHT22;4925;52.588;13.370;2022-12-10T15:26:28;2.30;81.70
9772;DHT22;4925;52.588;13.370;2022-12-10T15:31:49;2.10;80.60
9772;DHT22;4925;52.588;13.370;2022-12-10T15:34:15;2.10;81.90
9772;DHT22;4925;52.588;13.370;2022-12-10T15:39:21;2.10;81.60
9772;DHT22;4925;52.588;13.370;2022-12-10T15:41:52;2.00;84.00
9772;DHT22;4925;52.588;13.370;2022-12-10T15:44:31;2.00;87.90
9772;DHT22;4925;52.588;13.370;2022-12-10T15:47:19;2.00;90.10
9772;DHT22;4925;52.588;13.370;2022-12-10T15:49:47;2.00;92.90
9772;DHT22;4925;52.588;13.370;2022-12-10T15:52:19;2.00;91.80
9772;DHT22;4925;52.588;13.370;2022-12-10T15:54:47;2.00;94.90
9772;DHT22;4925;52.588;13.370;2022-12-10T16:00:00;2.00;94.10
9772;DHT22;4925;52.588;13.370;2022-12-10T16:05:28;1.90;93.90
9772;DHT22;4925;52.588;13.370;2022-12-10T16:07:56;1.90;97.00
9772;DHT22;4925;52.588;13.370;2022-12-10T16:10:24;1.90;96.40
9772;DHT22;4925;52.588;13.370;2022-12-10T16:13:04;1.90;99.90
9772;DHT22;4925;52.588;13.370;2022-12-10T16:15:43;1.80;98.30
9772;DHT22;4925;52.588;13.370;2022-12-10T16:18:11;1.80;99.90
9772;DHT22;4925;52.588;13.370;2022-12-10T16:20:36;2.00;99.90
9772;DHT22;4925;52.588;13.370;2022-12-10T16:23:03;2.00;99.90
9772;DHT22;4925;52.588;13.370;2022-12-10T16:25:31;2.00;99.90
9772;DHT22;4925;52.588;13.370;2022-12-10T16:27:58;2.00;99.90
9772;DHT22;4925;52.588;13.370;2022-12-10T16:30:28;2.00;98.90
9772;DHT22;4925;52.588;13.370;2022-12-10T16:32:54;2.00;99.90
9772;DHT22;4925;52.588;13.370;2022-12-10T16:35:21;1.90;99.90
9772;DHT22;4925;52.588;13.370;2022-12-10T16:37:48;1.90;99.90
9772;DHT22;4925;52.588;13.370;2022-12-10T16:40:22;1.90;99.90
9772;DHT22;4925;52.588;13.370;2022-12-10T16:42:49;1.70;99.90
9772;DHT22;4925;52.588;13.370;2022-12-10T16:45:19;1.70;99.90
9772;DHT22;4925;52.588;13.370;2022-12-10T16:47:45;1.70;99.90
9772;DHT22;4925;52.588;13.370;2022-12-10T16:50:13;1.80;99.90
9772;DHT22;4925;52.588;13.370;2022-12-10T16:52:39;1.80;99.90
9772;DHT22;4925;52.588;13.370;2022-12-10T16:55:06;1.90;99.90
9772;DHT22;4925;52.588;13.370;2022-12-10T16:57:33;1.90;99.90
9772;DHT22;4925;52.588;13.370;2022-12-10T16:59:59;1.90;99.90
9772;DHT22;4925;52.588;13.370;2022-12-10T17:02:25;1.90;99.90
9772;DHT22;4925;52.588;13.370;2022-12-10T17:04:50;1.90;99.90
9772;DHT22;4925;52.588;13.370;2022-12-10T17:07:16;2.00;99.90
9772;DHT22;4925;52.588;13.370;2022-12-10T17:09:41;2.10;99.90
9772;DHT22;4925;52.588;13.370;2022-12-10T17:12:10;2.10;99.90
9772;DHT22;4925;52.588;13.370;2022-12-10T17:14:40;2.00;99.90
9772;DHT22;4925;52.588;13.370;2022-12-10T17:17:09;2.10;99.90
9772;DHT22;4925;52.588;13.370;2022-12-10T17:19:36;2.00;99.90
9772;DHT22;4925;52.588;13.370;2022-12-10T17:22:02;2.00;99.90
9772;DHT22;4925;52.588;13.370;2022-12-10T17:24:28;2.00;99.90
9772;DHT22;4925;52.588;13.370;2022-12-10T17:27:02;2.00;99.90
9772;DHT22;4925;52.588;13.370;2022-12-10T17:29:33;2.00;99.90
9772;DHT22;4925;52.588;13.370;2022-12-10T17:32:01;2.00;99.90
9772;DHT22;4925;52.588;13.370;2022-12-10T17:34:27;2.10;99.90
9772;DHT22;4925;52.588;13.370;2022-12-10T17:36:52;2.00;99.90
9772;DHT22;4925;52.588;13.370;2022-12-10T17:39:20;2.00;99.90
9772;DHT22;4925;52.588;13.370;2022-12-10T17:41:46;1.90;99.90
9772;DHT22;4925;52.588;13.370;2022-12-10T17:44:12;2.00;99.90
9772;DHT22;4925;52.588;13.370;2022-12-10T17:46:38;2.00;99.90
9772;DHT22;4925;52.588;13.370;2022-12-10T17:49:04;1.90;99.90
9772;DHT22;4925;52.588;13.370;2022-12-10T17:51:30;1.90;99.90
9772;DHT22;4925;52.588;13.370;2022-12-10T17:53:57;2.00;99.90
9772;DHT22;4925;52.588;13.370;2022-12-10T17:56:26;2.00;99.90
9772;DHT22;4925;52.588;13.370;2022-12-10T17:58:56;1.90;99.90
9772;DHT22;4925;52.588;13.370;2022-12-10T18:01:22;2.00;99.90
9772;DHT22;4925;52.588;13.370;2022-12-10T18:03:48;2.00;99.90
9772;DHT22;4925;52.588;13.370;2022-12-10T18:06:19;2.00;99.90
9772;DHT22;4925;52.588;13.370;2022-12-10T18:08:46;2.10;99.90
9772;DHT22;4925;52.588;13.370;2022-12-10T18:11:17;2.10;99.90
9772;DHT22;4925;52.588;13.370;2022-12-10T18:13:43;2.00;99.90
9772;DHT22;4925;52.588;13.370;2022-12-10T18:16:14;2.00;99.90
9772;DHT22;4925;52.588;13.370;2022-12-10T18:18:40;1.80;99.90
9772;DHT22;4925;52.588;13.370;2022-12-10T18:21:06;1.80;99.90